sensor_id;sensor_type;location;lat;lon;timestamp;P1;durP1;ratioP1;P2;durP2;ratioP2
18681;SDS011;9471;51.168;4.154;2022-07-12T00:02:02;8.15;;;4.18;;
18681;SDS011;9471;51.168;4.154;2022-07-12T00:04:29;10.20;;;4.18;;
18681;SDS011;9471;51.168;4.154;2022-07-12T00:06:56;12.00;;;4.38;;
18681;SDS011;9471;51.168;4.154;2022-07-12T00:09:23;9.95;;;4.15;;
18681;SDS011;9471;51.168;4.154;2022-07-12T00:11:50;8.13;;;4.20;;
18681;SDS011;9471;51.168;4.154;2022-07-12T00:14:17;9.75;;;4.30;;
18681;SDS011;9471;51.168;4.154;2022-07-12T00:16:45;8.07;;;4.05;;
18681;SDS011;9471;51.168;4.154;2022-07-12T00:19:12;11.00;;;4.10;;
18681;SDS011;9471;51.168;4.154;2022-07-12T00:21:39;7.15;;;3.78;;
18681;SDS011;9471;51.168;4.154;2022-07-12T00:24:06;8.82;;;3.88;;
18681;SDS011;9471;51.168;4.154;2022-07-12T00:26:33;8.88;;;4.00;;
18681;SDS011;9471;51.168;4.154;2022-07-12T00:29:00;10.32;;;3.95;;
18681;SDS011;9471;51.168;4.154;2022-07-12T00:31:27;9.27;;;4.20;;
18681;SDS011;9471;51.168;4.154;2022-07-12T00:33:55;10.18;;;3.67;;
18681;SDS011;9471;51.168;4.154;2022-07-12T00:36:22;10.82;;;4.10;;
18681;SDS011;9471;51.168;4.154;2022-07-12T00:38:52;9.13;;;4.28;;
18681;SDS011;9471;51.168;4.154;2022-07-12T00:41:20;8.82;;;3.78;;
18681;SDS011;9471;51.168;4.154;2022-07-12T00:43:47;10.38;;;3.75;;
18681;SDS011;9471;51.168;4.154;2022-07-12T00:46:14;13.40;;;4.47;;
18681;SDS011;9471;51.168;4.154;2022-07-12T00:48:45;7.40;;;3.70;;
18681;SDS011;9471;51.168;4.154;2022-07-12T00:51:13;8.85;;;3.90;;
18681;SDS011;9471;51.168;4.154;2022-07-12T00:53:40;11.85;;;4.22;;
18681;SDS011;9471;51.168;4.154;2022-07-12T00:56:07;7.35;;;3.97;;
18681;SDS011;9471;51.168;4.154;2022-07-12T00:58:34;9.30;;;4.00;;
18681;SDS011;9471;51.168;4.154;2022-07-12T01:01:04;9.65;;;3.85;;
18681;SDS011;9471;51.168;4.154;2022-07-12T01:03:31;7.75;;;3.65;;
18681;SDS011;9471;51.168;4.154;2022-07-12T01:05:58;8.38;;;3.90;;
18681;SDS011;9471;51.168;4.154;2022-07-12T01:08:27;10.98;;;4.10;;
18681;SDS011;9471;51.168;4.154;2022-07-12T01:10:54;8.82;;;4.10;;
18681;SDS011;9471;51.168;4.154;2022-07-12T01:13:21;7.38;;;4.20;;
18681;SDS011;9471;51.168;4.154;2022-07-12T01:15:49;7.55;;;3.80;;
18681;SDS011;9471;51.168;4.154;2022-07-12T01:18:17;8.43;;;4.40;;
18681;SDS011;9471;51.168;4.154;2022-07-12T01:20:45;7.78;;;4.10;;
18681;SDS011;9471;51.168;4.154;2022-07-12T01:23:13;9.95;;;4.32;;
18681;SDS011;9471;51.168;4.154;2022-07-12T01:25:42;8.93;;;4.35;;
18681;SDS011;9471;51.168;4.154;2022-07-12T01:28:09;7.65;;;4.25;;
18681;SDS011;9471;51.168;4.154;2022-07-12T01:30:37;8.63;;;4.00;;
18681;SDS011;9471;51.168;4.154;2022-07-12T01:33:04;9.43;;;4.32;;
18681;SDS011;9471;51.168;4.154;2022-07-12T01:35:31;7.28;;;4.00;;
18681;SDS011;9471;51.168;4.154;2022-07-12T01:37:59;10.85;;;4.30;;
18681;SDS011;9471;51.168;4.154;2022-07-12T01:40:27;10.18;;;4.05;;
18681;SDS011;9471;51.168;4.154;2022-07-12T01:42:54;9.63;;;4.60;;
18681;SDS011;9471;51.168;4.154;2022-07-12T01:45:21;8.77;;;4.30;;
18681;SDS011;9471;51.168;4.154;2022-07-12T01:47:49;8.20;;;4.13;;
18681;SDS011;9471;51.168;4.154;2022-07-12T01:50:18;8.60;;;4.28;;
18681;SDS011;9471;51.168;4.154;2022-07-12T01:52:45;8.32;;;4.00;;
18681;SDS011;9471;51.168;4.154;2022-07-12T01:55:12;9.60;;;4.18;;
18681;SDS011;9471;51.168;4.154;2022-07-12T01:57:41;9.35;;;4.15;;
18681;SDS011;9471;51.168;4.154;2022-07-12T02:00:10;9.30;;;4.53;;
18681;SDS011;9471;51.168;4.154;2022-07-12T02:02:39;7.75;;;4.18;;
18681;SDS011;9471;51.168;4.154;2022-07-12T02:05:06;7.55;;;4.20;;
18681;SDS011;9471;51.168;4.154;2022-07-12T02:07:33;8.52;;;4.10;;
18681;SDS011;9471;51.168;4.154;2022-07-12T02:10:01;10.23;;;4.68;;
18681;SDS011;9471;51.168;4.154;2022-07-12T02:12:28;8.80;;;4.38;;
18681;SDS011;9471;51.168;4.154;2022-07-12T02:14:56;11.60;;;4.68;;
18681;SDS011;9471;51.168;4.154;2022-07-12T02:17:23;10.40;;;4.47;;
18681;SDS011;9471;51.168;4.154;2022-07-12T02:19:51;10.13;;;4.35;;
18681;SDS011;9471;51.168;4.154;2022-07-12T02:22:18;11.18;;;4.25;;
18681;SDS011;9471;51.168;4.154;2022-07-12T02:24:45;12.52;;;4.50;;
18681;SDS011;9471;51.168;4.154;2022-07-12T02:27:12;9.45;;;4.60;;
18681;SDS011;9471;51.168;4.154;2022-07-12T02:29:39;9.63;;;4.40;;
18681;SDS011;9471;51.168;4.154;2022-07-12T02:32:09;9.02;;;4.55;;
18681;SDS011;9471;51.168;4.154;2022-07-12T02:34:35;9.05;;;4.63;;
18681;SDS011;9471;51.168;4.154;2022-07-12T02:37:03;9.07;;;4.43;;
18681;SDS011;9471;51.168;4.154;2022-07-12T02:39:30;8.27;;;4.43;;
18681;SDS011;9471;51.168;4.154;2022-07-12T02:41:57;9.40;;;4.85;;
18681;SDS011;9471;51.168;4.154;2022-07-12T02:44:24;9.75;;;4.93;;
18681;SDS011;9471;51.168;4.154;2022-07-12T02:46:53;10.63;;;4.90;;
18681;SDS011;9471;51.168;4.154;2022-07-12T02:49:21;9.77;;;4.93;;
18681;SDS011;9471;51.168;4.154;2022-07-12T02:51:48;11.25;;;5.25;;
18681;SDS011;9471;51.168;4.154;2022-07-12T02:54:15;9.38;;;4.90;;
18681;SDS011;9471;51.168;4.154;2022-07-12T02:56:42;12.45;;;5.30;;
18681;SDS011;9471;51.168;4.154;2022-07-12T02:59:09;13.38;;;5.95;;
18681;SDS011;9471;51.168;4.154;2022-07-12T03:01:36;10.40;;;5.18;;
18681;SDS011;9471;51.168;4.154;2022-07-12T03:04:03;12.35;;;5.53;;
18681;SDS011;9471;51.168;4.154;2022-07-12T03:06:31;9.43;;;5.43;;
18681;SDS011;9471;51.168;4.154;2022-07-12T03:08:58;11.13;;;5.75;;
18681;SDS011;9471;51.168;4.154;2022-07-12T03:11:25;9.10;;;5.45;;
18681;SDS011;9471;51.168;4.154;2022-07-12T03:13:52;10.77;;;5.32;;
18681;SDS011;9471;51.168;4.154;2022-07-12T03:16:19;11.43;;;5.75;;
18681;SDS011;9471;51.168;4.154;2022-07-12T03:18:46;13.10;;;6.10;;
18681;SDS011;9471;51.168;4.154;2022-07-12T03:21:13;12.55;;;5.45;;
18681;SDS011;9471;51.168;4.154;2022-07-12T03:23:43;11.18;;;5.63;;
18681;SDS011;9471;51.168;4.154;2022-07-12T03:26:09;10.18;;;5.53;;
18681;SDS011;9471;51.168;4.154;2022-07-12T03:28:37;14.25;;;5.75;;
18681;SDS011;9471;51.168;4.154;2022-07-12T03:31:04;13.43;;;5.72;;
18681;SDS011;9471;51.168;4.154;2022-07-12T03:33:31;11.05;;;5.40;;
18681;SDS011;9471;51.168;4.154;2022-07-12T03:36:01;11.07;;;5.90;;
18681;SDS011;9471;51.168;4.154;2022-07-12T03:38:28;17.95;;;6.53;;
18681;SDS011;9471;51.168;4.154;2022-07-12T03:40:56;17.55;;;5.90;;
18681;SDS011;9471;51.168;4.154;2022-07-12T03:43:23;11.30;;;5.82;;
18681;SDS011;9471;51.168;4.154;2022-07-12T03:45:53;11.10;;;5.80;;
18681;SDS011;9471;51.168;4.154;2022-07-12T03:48:20;11.25;;;5.38;;
18681;SDS011;9471;51.168;4.154;2022-07-12T03:50:46;12.73;;;6.13;;
18681;SDS011;9471;51.168;4.154;2022-07-12T03:53:15;15.30;;;5.93;;
18681;SDS011;9471;51.168;4.154;2022-07-12T03:55:41;11.77;;;6.10;;
18681;SDS011;9471;51.168;4.154;2022-07-12T03:58:10;15.25;;;6.28;;
18681;SDS011;9471;51.168;4.154;2022-07-12T04:00:37;11.88;;;6.40;;
18681;SDS011;9471;51.168;4.154;2022-07-12T04:03:05;12.50;;;5.90;;
18681;SDS011;9471;51.168;4.154;2022-07-12T04:05:32;11.38;;;5.70;;
18681;SDS011;9471;51.168;4.154;2022-07-12T04:07:59;12.73;;;6.25;;
18681;SDS011;9471;51.168;4.154;2022-07-12T04:10:27;12.32;;;5.55;;
18681;SDS011;9471;51.168;4.154;2022-07-12T04:12:54;12.25;;;6.22;;
18681;SDS011;9471;51.168;4.154;2022-07-12T04:15:22;10.95;;;6.22;;
18681;SDS011;9471;51.168;4.154;2022-07-12T04:17:49;12.05;;;6.43;;
18681;SDS011;9471;51.168;4.154;2022-07-12T04:20:16;14.45;;;6.35;;
18681;SDS011;9471;51.168;4.154;2022-07-12T04:22:43;14.82;;;6.45;;
18681;SDS011;9471;51.168;4.154;2022-07-12T04:25:10;11.43;;;6.13;;
18681;SDS011;9471;51.168;4.154;2022-07-12T04:27:37;12.35;;;6.50;;
18681;SDS011;9471;51.168;4.154;2022-07-12T04:30:05;13.02;;;6.15;;
18681;SDS011;9471;51.168;4.154;2022-07-12T04:32:34;13.27;;;6.25;;
18681;SDS011;9471;51.168;4.154;2022-07-12T04:35:01;12.45;;;5.97;;
18681;SDS011;9471;51.168;4.154;2022-07-12T04:37:29;13.93;;;5.97;;
18681;SDS011;9471;51.168;4.154;2022-07-12T04:39:56;9.73;;;5.75;;
18681;SDS011;9471;51.168;4.154;2022-07-12T04:42:22;13.95;;;5.93;;
18681;SDS011;9471;51.168;4.154;2022-07-12T04:44:49;11.73;;;5.95;;
18681;SDS011;9471;51.168;4.154;2022-07-12T04:47:16;12.43;;;6.47;;
18681;SDS011;9471;51.168;4.154;2022-07-12T04:49:45;12.10;;;5.70;;
18681;SDS011;9471;51.168;4.154;2022-07-12T04:52:12;11.93;;;6.00;;
18681;SDS011;9471;51.168;4.154;2022-07-12T04:54:39;11.30;;;5.93;;
18681;SDS011;9471;51.168;4.154;2022-07-12T04:57:08;13.77;;;6.35;;
18681;SDS011;9471;51.168;4.154;2022-07-12T04:59:35;11.38;;;6.05;;
18681;SDS011;9471;51.168;4.154;2022-07-12T05:02:02;15.82;;;6.35;;
18681;SDS011;9471;51.168;4.154;2022-07-12T05:04:31;13.80;;;6.63;;
18681;SDS011;9471;51.168;4.154;2022-07-12T05:06:59;13.90;;;7.05;;
18681;SDS011;9471;51.168;4.154;2022-07-12T05:09:26;11.77;;;6.13;;
18681;SDS011;9471;51.168;4.154;2022-07-12T05:11:53;11.98;;;6.25;;
18681;SDS011;9471;51.168;4.154;2022-07-12T05:14:20;12.27;;;6.22;;
18681;SDS011;9471;51.168;4.154;2022-07-12T05:16:47;13.98;;;6.53;;
18681;SDS011;9471;51.168;4.154;2022-07-12T05:19:14;13.68;;;6.53;;
18681;SDS011;9471;51.168;4.154;2022-07-12T05:21:42;15.90;;;6.60;;
18681;SDS011;9471;51.168;4.154;2022-07-12T05:24:10;12.75;;;6.55;;
18681;SDS011;9471;51.168;4.154;2022-07-12T05:26:37;11.48;;;6.18;;
18681;SDS011;9471;51.168;4.154;2022-07-12T05:29:04;13.70;;;6.97;;
18681;SDS011;9471;51.168;4.154;2022-07-12T05:31:31;12.43;;;6.30;;
18681;SDS011;9471;51.168;4.154;2022-07-12T05:33:58;10.82;;;5.40;;
18681;SDS011;9471;51.168;4.154;2022-07-12T05:36:28;12.70;;;5.30;;
18681;SDS011;9471;51.168;4.154;2022-07-12T05:38:55;8.73;;;5.03;;
18681;SDS011;9471;51.168;4.154;2022-07-12T05:41:23;10.70;;;4.93;;
18681;SDS011;9471;51.168;4.154;2022-07-12T05:43:50;13.18;;;5.32;;
18681;SDS011;9471;51.168;4.154;2022-07-12T05:46:17;11.75;;;5.07;;
18681;SDS011;9471;51.168;4.154;2022-07-12T05:48:47;9.35;;;5.32;;
18681;SDS011;9471;51.168;4.154;2022-07-12T05:51:14;11.18;;;5.72;;
18681;SDS011;9471;51.168;4.154;2022-07-12T05:53:58;11.88;;;5.35;;
18681;SDS011;9471;51.168;4.154;2022-07-12T05:56:27;11.23;;;5.15;;
18681;SDS011;9471;51.168;4.154;2022-07-12T05:58:54;10.85;;;5.07;;
18681;SDS011;9471;51.168;4.154;2022-07-12T06:01:21;12.52;;;5.75;;
18681;SDS011;9471;51.168;4.154;2022-07-12T06:03:48;9.38;;;4.78;;
18681;SDS011;9471;51.168;4.154;2022-07-12T06:06:15;12.70;;;4.97;;
18681;SDS011;9471;51.168;4.154;2022-07-12T06:08:42;8.63;;;4.70;;
18681;SDS011;9471;51.168;4.154;2022-07-12T06:11:09;9.68;;;5.40;;
18681;SDS011;9471;51.168;4.154;2022-07-12T06:13:37;9.40;;;4.32;;
18681;SDS011;9471;51.168;4.154;2022-07-12T06:16:04;11.77;;;5.13;;
18681;SDS011;9471;51.168;4.154;2022-07-12T06:18:31;10.68;;;4.95;;
18681;SDS011;9471;51.168;4.154;2022-07-12T06:21:00;13.82;;;4.82;;
18681;SDS011;9471;51.168;4.154;2022-07-12T06:23:27;10.35;;;4.40;;
18681;SDS011;9471;51.168;4.154;2022-07-12T06:25:54;11.60;;;4.75;;
18681;SDS011;9471;51.168;4.154;2022-07-12T06:28:21;13.60;;;4.68;;
18681;SDS011;9471;51.168;4.154;2022-07-12T06:30:50;9.68;;;4.47;;
18681;SDS011;9471;51.168;4.154;2022-07-12T06:33:17;9.13;;;4.15;;
18681;SDS011;9471;51.168;4.154;2022-07-12T06:35:44;10.63;;;4.68;;
18681;SDS011;9471;51.168;4.154;2022-07-12T06:38:11;11.82;;;4.75;;
18681;SDS011;9471;51.168;4.154;2022-07-12T06:40:38;9.50;;;4.85;;
18681;SDS011;9471;51.168;4.154;2022-07-12T06:43:08;10.00;;;4.97;;
18681;SDS011;9471;51.168;4.154;2022-07-12T06:45:35;11.70;;;4.55;;
18681;SDS011;9471;51.168;4.154;2022-07-12T06:48:04;11.90;;;5.05;;
18681;SDS011;9471;51.168;4.154;2022-07-12T06:50:32;11.68;;;5.30;;
18681;SDS011;9471;51.168;4.154;2022-07-12T06:52:58;10.27;;;5.57;;
18681;SDS011;9471;51.168;4.154;2022-07-12T06:55:25;12.60;;;5.78;;
18681;SDS011;9471;51.168;4.154;2022-07-12T06:57:52;10.82;;;4.95;;
18681;SDS011;9471;51.168;4.154;2022-07-12T07:00:19;8.73;;;4.93;;
18681;SDS011;9471;51.168;4.154;2022-07-12T07:02:46;10.00;;;5.40;;
18681;SDS011;9471;51.168;4.154;2022-07-12T07:05:15;14.38;;;6.25;;
18681;SDS011;9471;51.168;4.154;2022-07-12T07:07:43;10.43;;;5.93;;
18681;SDS011;9471;51.168;4.154;2022-07-12T07:10:09;13.00;;;6.97;;
18681;SDS011;9471;51.168;4.154;2022-07-12T07:12:36;12.55;;;7.53;;
18681;SDS011;9471;51.168;4.154;2022-07-12T07:15:04;11.10;;;6.57;;
18681;SDS011;9471;51.168;4.154;2022-07-12T07:17:32;13.43;;;7.10;;
18681;SDS011;9471;51.168;4.154;2022-07-12T07:19:58;14.63;;;7.53;;
18681;SDS011;9471;51.168;4.154;2022-07-12T07:22:27;10.70;;;7.07;;
18681;SDS011;9471;51.168;4.154;2022-07-12T07:24:54;12.75;;;7.28;;
18681;SDS011;9471;51.168;4.154;2022-07-12T07:27:21;12.20;;;7.60;;
18681;SDS011;9471;51.168;4.154;2022-07-12T07:29:47;12.15;;;7.00;;
18681;SDS011;9471;51.168;4.154;2022-07-12T07:32:32;10.63;;;6.90;;
18681;SDS011;9471;51.168;4.154;2022-07-12T07:34:59;12.23;;;6.75;;
18681;SDS011;9471;51.168;4.154;2022-07-12T07:37:27;10.73;;;6.63;;
18681;SDS011;9471;51.168;4.154;2022-07-12T07:39:54;10.85;;;6.40;;
18681;SDS011;9471;51.168;4.154;2022-07-12T07:42:21;11.85;;;7.03;;
18681;SDS011;9471;51.168;4.154;2022-07-12T07:44:48;12.13;;;7.07;;
18681;SDS011;9471;51.168;4.154;2022-07-12T07:47:15;11.07;;;6.22;;
18681;SDS011;9471;51.168;4.154;2022-07-12T07:49:42;11.13;;;6.88;;
18681;SDS011;9471;51.168;4.154;2022-07-12T07:52:09;11.48;;;6.95;;
18681;SDS011;9471;51.168;4.154;2022-07-12T07:54:37;11.65;;;6.50;;
18681;SDS011;9471;51.168;4.154;2022-07-12T07:57:04;12.50;;;6.50;;
18681;SDS011;9471;51.168;4.154;2022-07-12T07:59:31;11.32;;;6.32;;
18681;SDS011;9471;51.168;4.154;2022-07-12T08:01:58;11.00;;;6.88;;
18681;SDS011;9471;51.168;4.154;2022-07-12T08:04:26;13.07;;;6.00;;
18681;SDS011;9471;51.168;4.154;2022-07-12T08:06:52;10.70;;;6.45;;
18681;SDS011;9471;51.168;4.154;2022-07-12T08:09:21;11.80;;;5.70;;
18681;SDS011;9471;51.168;4.154;2022-07-12T08:11:50;11.10;;;5.60;;
18681;SDS011;9471;51.168;4.154;2022-07-12T08:14:16;11.13;;;6.18;;
18681;SDS011;9471;51.168;4.154;2022-07-12T08:16:43;9.05;;;5.53;;
18681;SDS011;9471;51.168;4.154;2022-07-12T08:19:10;11.35;;;5.00;;
18681;SDS011;9471;51.168;4.154;2022-07-12T08:21:37;9.60;;;5.60;;
18681;SDS011;9471;51.168;4.154;2022-07-12T08:24:04;13.20;;;5.97;;
18681;SDS011;9471;51.168;4.154;2022-07-12T08:26:31;10.82;;;5.80;;
18681;SDS011;9471;51.168;4.154;2022-07-12T08:28:59;10.43;;;5.72;;
18681;SDS011;9471;51.168;4.154;2022-07-12T08:31:26;12.25;;;6.05;;
18681;SDS011;9471;51.168;4.154;2022-07-12T08:33:53;12.75;;;6.05;;
18681;SDS011;9471;51.168;4.154;2022-07-12T08:36:20;11.55;;;5.30;;
18681;SDS011;9471;51.168;4.154;2022-07-12T08:38:47;8.63;;;5.45;;
18681;SDS011;9471;51.168;4.154;2022-07-12T08:41:14;11.13;;;4.95;;
18681;SDS011;9471;51.168;4.154;2022-07-12T08:43:41;9.30;;;5.25;;
18681;SDS011;9471;51.168;4.154;2022-07-12T08:46:11;9.52;;;4.78;;
18681;SDS011;9471;51.168;4.154;2022-07-12T08:48:39;11.82;;;5.43;;
18681;SDS011;9471;51.168;4.154;2022-07-12T08:51:07;9.23;;;4.30;;
18681;SDS011;9471;51.168;4.154;2022-07-12T08:53:35;10.13;;;4.70;;
18681;SDS011;9471;51.168;4.154;2022-07-12T08:56:02;13.02;;;4.93;;
18681;SDS011;9471;51.168;4.154;2022-07-12T08:58:30;10.07;;;5.05;;
18681;SDS011;9471;51.168;4.154;2022-07-12T09:00:57;10.70;;;5.63;;
18681;SDS011;9471;51.168;4.154;2022-07-12T09:03:26;9.98;;;5.32;;
18681;SDS011;9471;51.168;4.154;2022-07-12T09:05:54;13.32;;;5.20;;
18681;SDS011;9471;51.168;4.154;2022-07-12T09:08:27;9.50;;;4.63;;
18681;SDS011;9471;51.168;4.154;2022-07-12T09:10:58;8.80;;;4.72;;
18681;SDS011;9471;51.168;4.154;2022-07-12T09:16:12;9.20;;;4.65;;
18681;SDS011;9471;51.168;4.154;2022-07-12T09:18:41;10.73;;;5.00;;
18681;SDS011;9471;51.168;4.154;2022-07-12T09:21:08;10.30;;;5.13;;
18681;SDS011;9471;51.168;4.154;2022-07-12T09:23:35;11.30;;;4.68;;
18681;SDS011;9471;51.168;4.154;2022-07-12T09:26:07;9.00;;;4.60;;
18681;SDS011;9471;51.168;4.154;2022-07-12T09:28:35;10.48;;;5.40;;
18681;SDS011;9471;51.168;4.154;2022-07-12T09:31:02;11.43;;;4.65;;
18681;SDS011;9471;51.168;4.154;2022-07-12T09:33:29;10.10;;;5.13;;
18681;SDS011;9471;51.168;4.154;2022-07-12T09:36:15;11.93;;;5.03;;
18681;SDS011;9471;51.168;4.154;2022-07-12T09:38:50;10.90;;;5.53;;
18681;SDS011;9471;51.168;4.154;2022-07-12T09:41:19;9.50;;;4.75;;
18681;SDS011;9471;51.168;4.154;2022-07-12T09:43:47;13.30;;;6.10;;
18681;SDS011;9471;51.168;4.154;2022-07-12T09:46:14;12.68;;;5.30;;
18681;SDS011;9471;51.168;4.154;2022-07-12T09:48:42;9.80;;;4.68;;
18681;SDS011;9471;51.168;4.154;2022-07-12T09:51:12;8.82;;;5.18;;
18681;SDS011;9471;51.168;4.154;2022-07-12T09:53:43;8.68;;;4.88;;
18681;SDS011;9471;51.168;4.154;2022-07-12T09:56:11;7.63;;;4.38;;
18681;SDS011;9471;51.168;4.154;2022-07-12T09:58:39;8.73;;;4.90;;
18681;SDS011;9471;51.168;4.154;2022-07-12T10:01:09;10.70;;;5.13;;
18681;SDS011;9471;51.168;4.154;2022-07-12T10:03:37;10.77;;;5.05;;
18681;SDS011;9471;51.168;4.154;2022-07-12T10:06:06;10.30;;;5.55;;
18681;SDS011;9471;51.168;4.154;2022-07-12T10:08:35;10.32;;;5.38;;
18681;SDS011;9471;51.168;4.154;2022-07-12T10:11:03;9.60;;;5.22;;
18681;SDS011;9471;51.168;4.154;2022-07-12T10:13:31;9.68;;;5.20;;
18681;SDS011;9471;51.168;4.154;2022-07-12T10:15:59;12.35;;;5.40;;
18681;SDS011;9471;51.168;4.154;2022-07-12T10:18:27;10.00;;;5.00;;
18681;SDS011;9471;51.168;4.154;2022-07-12T10:20:55;8.68;;;5.03;;
18681;SDS011;9471;51.168;4.154;2022-07-12T10:23:29;12.38;;;6.00;;
18681;SDS011;9471;51.168;4.154;2022-07-12T10:25:59;15.13;;;5.50;;
18681;SDS011;9471;51.168;4.154;2022-07-12T10:28:55;9.55;;;5.18;;
18681;SDS011;9471;51.168;4.154;2022-07-12T10:31:26;7.50;;;4.72;;
18681;SDS011;9471;51.168;4.154;2022-07-12T10:34:08;8.02;;;4.50;;
18681;SDS011;9471;51.168;4.154;2022-07-12T10:42:39;8.57;;;5.07;;
18681;SDS011;9471;51.168;4.154;2022-07-12T10:45:12;11.93;;;5.18;;
18681;SDS011;9471;51.168;4.154;2022-07-12T10:47:52;10.07;;;5.28;;
18681;SDS011;9471;51.168;4.154;2022-07-12T10:50:33;9.35;;;4.70;;
18681;SDS011;9471;51.168;4.154;2022-07-12T10:53:20;10.90;;;4.88;;
18681;SDS011;9471;51.168;4.154;2022-07-12T10:58:41;9.15;;;5.05;;
18681;SDS011;9471;51.168;4.154;2022-07-12T11:01:10;8.65;;;3.88;;
18681;SDS011;9471;51.168;4.154;2022-07-12T11:03:39;9.00;;;4.05;;
18681;SDS011;9471;51.168;4.154;2022-07-12T11:06:07;9.23;;;3.95;;
18681;SDS011;9471;51.168;4.154;2022-07-12T11:11:34;9.48;;;3.88;;
18681;SDS011;9471;51.168;4.154;2022-07-12T11:14:05;9.55;;;4.95;;
18681;SDS011;9471;51.168;4.154;2022-07-12T11:16:34;12.73;;;4.95;;
18681;SDS011;9471;51.168;4.154;2022-07-12T11:19:09;8.38;;;4.10;;
18681;SDS011;9471;51.168;4.154;2022-07-12T11:21:36;7.07;;;3.92;;
18681;SDS011;9471;51.168;4.154;2022-07-12T11:24:03;8.48;;;4.13;;
18681;SDS011;9471;51.168;4.154;2022-07-12T11:26:42;8.95;;;3.85;;
18681;SDS011;9471;51.168;4.154;2022-07-12T11:29:09;7.75;;;4.10;;
18681;SDS011;9471;51.168;4.154;2022-07-12T11:31:39;7.95;;;3.80;;
18681;SDS011;9471;51.168;4.154;2022-07-12T11:34:06;7.15;;;3.63;;
18681;SDS011;9471;51.168;4.154;2022-07-12T11:36:35;7.78;;;4.28;;
18681;SDS011;9471;51.168;4.154;2022-07-12T11:39:04;9.15;;;4.28;;
18681;SDS011;9471;51.168;4.154;2022-07-12T11:41:31;8.23;;;4.20;;
18681;SDS011;9471;51.168;4.154;2022-07-12T11:43:58;10.73;;;4.00;;
18681;SDS011;9471;51.168;4.154;2022-07-12T11:46:25;7.82;;;3.92;;
18681;SDS011;9471;51.168;4.154;2022-07-12T11:48:53;6.53;;;3.33;;
18681;SDS011;9471;51.168;4.154;2022-07-12T11:51:20;8.98;;;3.22;;
18681;SDS011;9471;51.168;4.154;2022-07-12T11:53:52;6.97;;;3.50;;
18681;SDS011;9471;51.168;4.154;2022-07-12T11:56:28;11.25;;;4.15;;
18681;SDS011;9471;51.168;4.154;2022-07-12T11:58:55;8.30;;;3.92;;
18681;SDS011;9471;51.168;4.154;2022-07-12T12:01:23;9.15;;;4.00;;
18681;SDS011;9471;51.168;4.154;2022-07-12T12:03:53;7.65;;;4.10;;
18681;SDS011;9471;51.168;4.154;2022-07-12T12:06:21;9.30;;;4.40;;
18681;SDS011;9471;51.168;4.154;2022-07-12T12:08:50;9.63;;;4.45;;
18681;SDS011;9471;51.168;4.154;2022-07-12T12:11:17;11.70;;;4.40;;
18681;SDS011;9471;51.168;4.154;2022-07-12T12:13:55;9.75;;;4.25;;
18681;SDS011;9471;51.168;4.154;2022-07-12T12:16:23;9.00;;;4.00;;
18681;SDS011;9471;51.168;4.154;2022-07-12T12:18:50;9.20;;;3.78;;
18681;SDS011;9471;51.168;4.154;2022-07-12T12:21:18;9.43;;;3.90;;
18681;SDS011;9471;51.168;4.154;2022-07-12T12:23:54;7.75;;;3.97;;
18681;SDS011;9471;51.168;4.154;2022-07-12T12:26:35;10.25;;;5.43;;
18681;SDS011;9471;51.168;4.154;2022-07-12T12:29:02;6.45;;;3.35;;
18681;SDS011;9471;51.168;4.154;2022-07-12T12:31:29;9.73;;;3.45;;
18681;SDS011;9471;51.168;4.154;2022-07-12T12:33:56;6.03;;;3.15;;
18681;SDS011;9471;51.168;4.154;2022-07-12T12:36:25;3.25;;;1.60;;
18681;SDS011;9471;51.168;4.154;2022-07-12T12:38:54;4.45;;;1.67;;
18681;SDS011;9471;51.168;4.154;2022-07-12T12:41:22;5.18;;;2.10;;
18681;SDS011;9471;51.168;4.154;2022-07-12T12:43:57;5.45;;;2.50;;
18681;SDS011;9471;51.168;4.154;2022-07-12T12:46:43;6.18;;;3.40;;
18681;SDS011;9471;51.168;4.154;2022-07-12T12:49:11;6.35;;;3.30;;
18681;SDS011;9471;51.168;4.154;2022-07-12T12:51:51;11.10;;;5.55;;
18681;SDS011;9471;51.168;4.154;2022-07-12T12:54:32;7.35;;;2.85;;
18681;SDS011;9471;51.168;4.154;2022-07-12T12:57:00;7.25;;;3.35;;
18681;SDS011;9471;51.168;4.154;2022-07-12T12:59:27;8.23;;;3.13;;
18681;SDS011;9471;51.168;4.154;2022-07-12T13:01:54;8.45;;;3.72;;
18681;SDS011;9471;51.168;4.154;2022-07-12T13:04:21;5.93;;;3.08;;
18681;SDS011;9471;51.168;4.154;2022-07-12T13:06:48;5.50;;;3.10;;
18681;SDS011;9471;51.168;4.154;2022-07-12T13:09:16;7.43;;;3.78;;
18681;SDS011;9471;51.168;4.154;2022-07-12T13:11:46;6.43;;;3.08;;
18681;SDS011;9471;51.168;4.154;2022-07-12T13:14:13;9.25;;;3.58;;
18681;SDS011;9471;51.168;4.154;2022-07-12T13:16:41;5.47;;;3.20;;
18681;SDS011;9471;51.168;4.154;2022-07-12T13:19:08;7.72;;;3.30;;
18681;SDS011;9471;51.168;4.154;2022-07-12T13:21:35;7.28;;;2.90;;
18681;SDS011;9471;51.168;4.154;2022-07-12T13:24:02;7.57;;;3.10;;
18681;SDS011;9471;51.168;4.154;2022-07-12T13:26:33;8.60;;;3.33;;
18681;SDS011;9471;51.168;4.154;2022-07-12T13:29:00;8.23;;;3.20;;
18681;SDS011;9471;51.168;4.154;2022-07-12T13:31:27;5.35;;;2.90;;
18681;SDS011;9471;51.168;4.154;2022-07-12T13:33:54;5.80;;;2.65;;
18681;SDS011;9471;51.168;4.154;2022-07-12T13:36:21;9.50;;;5.28;;
18681;SDS011;9471;51.168;4.154;2022-07-12T13:38:48;5.15;;;2.53;;
18681;SDS011;9471;51.168;4.154;2022-07-12T13:41:15;4.10;;;2.20;;
18681;SDS011;9471;51.168;4.154;2022-07-12T13:43:44;6.43;;;2.83;;
18681;SDS011;9471;51.168;4.154;2022-07-12T13:46:11;6.93;;;2.60;;
18681;SDS011;9471;51.168;4.154;2022-07-12T13:48:40;5.97;;;2.55;;
18681;SDS011;9471;51.168;4.154;2022-07-12T13:51:07;4.95;;;2.50;;
18681;SDS011;9471;51.168;4.154;2022-07-12T13:53:34;8.00;;;2.80;;
18681;SDS011;9471;51.168;4.154;2022-07-12T13:56:01;7.13;;;2.47;;
18681;SDS011;9471;51.168;4.154;2022-07-12T13:58:28;8.60;;;3.45;;
18681;SDS011;9471;51.168;4.154;2022-07-12T14:00:56;2.60;;;1.42;;
18681;SDS011;9471;51.168;4.154;2022-07-12T14:03:23;6.63;;;2.72;;
18681;SDS011;9471;51.168;4.154;2022-07-12T14:05:50;3.72;;;1.98;;
18681;SDS011;9471;51.168;4.154;2022-07-12T14:08:17;10.55;;;3.78;;
18681;SDS011;9471;51.168;4.154;2022-07-12T14:10:44;8.90;;;3.33;;
18681;SDS011;9471;51.168;4.154;2022-07-12T14:13:12;10.73;;;3.25;;
18681;SDS011;9471;51.168;4.154;2022-07-12T14:15:39;9.32;;;2.55;;
18681;SDS011;9471;51.168;4.154;2022-07-12T14:18:09;2.75;;;1.60;;
18681;SDS011;9471;51.168;4.154;2022-07-12T14:20:38;4.68;;;1.67;;
18681;SDS011;9471;51.168;4.154;2022-07-12T14:23:05;7.72;;;2.00;;
18681;SDS011;9471;51.168;4.154;2022-07-12T14:25:33;5.10;;;1.88;;
18681;SDS011;9471;51.168;4.154;2022-07-12T14:28:00;7.38;;;2.70;;
18681;SDS011;9471;51.168;4.154;2022-07-12T14:30:27;4.88;;;1.92;;
18681;SDS011;9471;51.168;4.154;2022-07-12T14:32:54;5.75;;;2.28;;
18681;SDS011;9471;51.168;4.154;2022-07-12T14:35:23;8.93;;;2.83;;
18681;SDS011;9471;51.168;4.154;2022-07-12T14:37:50;3.60;;;1.75;;
18681;SDS011;9471;51.168;4.154;2022-07-12T14:40:17;6.20;;;2.30;;
18681;SDS011;9471;51.168;4.154;2022-07-12T14:42:44;6.93;;;2.42;;
18681;SDS011;9471;51.168;4.154;2022-07-12T14:45:11;7.35;;;2.90;;
18681;SDS011;9471;51.168;4.154;2022-07-12T14:47:38;9.48;;;2.67;;
18681;SDS011;9471;51.168;4.154;2022-07-12T14:50:05;5.20;;;2.20;;
18681;SDS011;9471;51.168;4.154;2022-07-12T14:52:34;5.97;;;1.90;;
18681;SDS011;9471;51.168;4.154;2022-07-12T14:55:01;9.68;;;2.28;;
18681;SDS011;9471;51.168;4.154;2022-07-12T14:57:29;5.75;;;2.33;;
18681;SDS011;9471;51.168;4.154;2022-07-12T14:59:56;5.15;;;2.13;;
18681;SDS011;9471;51.168;4.154;2022-07-12T15:02:23;4.35;;;2.10;;
18681;SDS011;9471;51.168;4.154;2022-07-12T15:04:51;8.70;;;2.22;;
18681;SDS011;9471;51.168;4.154;2022-07-12T15:07:18;4.30;;;2.10;;
18681;SDS011;9471;51.168;4.154;2022-07-12T15:09:46;6.32;;;2.08;;
18681;SDS011;9471;51.168;4.154;2022-07-12T15:12:13;7.57;;;2.67;;
18681;SDS011;9471;51.168;4.154;2022-07-12T15:14:40;7.18;;;2.60;;
18681;SDS011;9471;51.168;4.154;2022-07-12T15:17:08;6.20;;;2.17;;